sensor_id;sensor_type;location;lat;lon;timestamp;P1;durP1;ratioP1;P2;durP2;ratioP2
52380;SDS011;38310;52.796;6.942;2023-04-03T00:01:28;3.13;;;1.98;;
52380;SDS011;38310;52.796;6.942;2023-04-03T00:03:54;3.30;;;1.90;;
52380;SDS011;38310;52.796;6.942;2023-04-03T00:06:21;4.32;;;2.20;;
52380;SDS011;38310;52.796;6.942;2023-04-03T00:08:47;4.95;;;2.03;;
52380;SDS011;38310;52.796;6.942;2023-04-03T00:11:13;4.20;;;2.08;;
52380;SDS011;38310;52.796;6.942;2023-04-03T00:13:40;2.55;;;1.80;;
52380;SDS011;38310;52.796;6.942;2023-04-03T00:16:07;3.45;;;1.88;;
52380;SDS011;38310;52.796;6.942;2023-04-03T00:18:33;3.03;;;1.77;;
52380;SDS011;38310;52.796;6.942;2023-04-03T00:20:59;4.43;;;2.38;;
52380;SDS011;38310;52.796;6.942;2023-04-03T00:23:25;6.70;;;2.35;;
52380;SDS011;38310;52.796;6.942;2023-04-03T00:25:51;4.45;;;2.75;;
52380;SDS011;38310;52.796;6.942;2023-04-03T00:28:17;5.40;;;2.70;;
52380;SDS011;38310;52.796;6.942;2023-04-03T00:30:43;3.65;;;2.03;;
52380;SDS011;38310;52.796;6.942;2023-04-03T00:33:11;4.10;;;2.30;;
52380;SDS011;38310;52.796;6.942;2023-04-03T00:35:38;2.67;;;1.88;;
52380;SDS011;38310;52.796;6.942;2023-04-03T00:38:04;5.95;;;2.38;;
52380;SDS011;38310;52.796;6.942;2023-04-03T00:40:33;4.15;;;2.20;;
52380;SDS011;38310;52.796;6.942;2023-04-03T00:43:00;6.55;;;2.55;;
52380;SDS011;38310;52.796;6.942;2023-04-03T00:45:34;4.57;;;2.65;;
52380;SDS011;38310;52.796;6.942;2023-04-03T00:48:05;3.70;;;2.22;;
52380;SDS011;38310;52.796;6.942;2023-04-03T00:50:34;4.60;;;2.63;;
52380;SDS011;38310;52.796;6.942;2023-04-03T00:53:02;5.30;;;2.90;;
52380;SDS011;38310;52.796;6.942;2023-04-03T00:55:30;3.80;;;2.20;;
52380;SDS011;38310;52.796;6.942;2023-04-03T00:57:56;6.05;;;2.38;;
52380;SDS011;38310;52.796;6.942;2023-04-03T01:00:23;3.25;;;2.33;;
52380;SDS011;38310;52.796;6.942;2023-04-03T01:02:50;6.60;;;4.10;;
52380;SDS011;38310;52.796;6.942;2023-04-03T01:05:16;5.57;;;2.47;;
52380;SDS011;38310;52.796;6.942;2023-04-03T01:07:45;4.85;;;2.72;;
52380;SDS011;38310;52.796;6.942;2023-04-03T01:10:12;7.22;;;2.53;;
52380;SDS011;38310;52.796;6.942;2023-04-03T01:12:42;6.28;;;2.70;;
52380;SDS011;38310;52.796;6.942;2023-04-03T01:15:11;4.63;;;2.30;;
52380;SDS011;38310;52.796;6.942;2023-04-03T01:17:44;4.95;;;2.50;;
52380;SDS011;38310;52.796;6.942;2023-04-03T01:25:39;8.45;;;2.85;;
52380;SDS011;38310;52.796;6.942;2023-04-03T01:28:09;4.82;;;2.92;;
52380;SDS011;38310;52.796;6.942;2023-04-03T01:30:43;5.22;;;3.00;;
52380;SDS011;38310;52.796;6.942;2023-04-03T01:33:33;6.57;;;2.60;;
52380;SDS011;38310;52.796;6.942;2023-04-03T01:36:00;5.25;;;2.90;;
52380;SDS011;38310;52.796;6.942;2023-04-03T01:38:26;5.22;;;3.00;;
52380;SDS011;38310;52.796;6.942;2023-04-03T01:40:52;4.93;;;2.50;;
52380;SDS011;38310;52.796;6.942;2023-04-03T01:43:18;5.90;;;2.65;;
52380;SDS011;38310;52.796;6.942;2023-04-03T01:45:44;4.10;;;2.35;;
52380;SDS011;38310;52.796;6.942;2023-04-03T01:48:11;4.13;;;2.67;;
52380;SDS011;38310;52.796;6.942;2023-04-03T01:50:38;6.13;;;2.75;;
52380;SDS011;38310;52.796;6.942;2023-04-03T01:53:04;5.28;;;2.97;;
52380;SDS011;38310;52.796;6.942;2023-04-03T01:55:30;5.38;;;2.80;;
52380;SDS011;38310;52.796;6.942;2023-04-03T01:57:55;5.60;;;3.25;;
52380;SDS011;38310;52.796;6.942;2023-04-03T02:00:21;5.15;;;2.80;;
52380;SDS011;38310;52.796;6.942;2023-04-03T02:02:47;5.20;;;2.97;;
52380;SDS011;38310;52.796;6.942;2023-04-03T02:05:12;6.43;;;2.95;;
52380;SDS011;38310;52.796;6.942;2023-04-03T02:07:38;4.07;;;2.78;;
52380;SDS011;38310;52.796;6.942;2023-04-03T02:10:04;9.32;;;3.00;;
52380;SDS011;38310;52.796;6.942;2023-04-03T02:12:30;5.78;;;2.88;;
52380;SDS011;38310;52.796;6.942;2023-04-03T02:14:56;4.82;;;2.85;;
52380;SDS011;38310;52.796;6.942;2023-04-03T02:17:22;4.90;;;2.70;;
52380;SDS011;38310;52.796;6.942;2023-04-03T02:19:47;6.13;;;3.15;;
52380;SDS011;38310;52.796;6.942;2023-04-03T02:22:13;9.18;;;3.67;;
52380;SDS011;38310;52.796;6.942;2023-04-03T02:24:39;5.18;;;2.80;;
52380;SDS011;38310;52.796;6.942;2023-04-03T02:27:05;8.15;;;3.72;;
52380;SDS011;38310;52.796;6.942;2023-04-03T02:29:31;5.13;;;2.78;;
52380;SDS011;38310;52.796;6.942;2023-04-03T02:31:57;6.63;;;3.13;;
52380;SDS011;38310;52.796;6.942;2023-04-03T02:34:22;6.75;;;3.50;;
52380;SDS011;38310;52.796;6.942;2023-04-03T02:36:48;8.95;;;3.35;;
52380;SDS011;38310;52.796;6.942;2023-04-03T02:39:14;7.20;;;3.05;;
52380;SDS011;38310;52.796;6.942;2023-04-03T02:41:40;5.32;;;3.00;;
52380;SDS011;38310;52.796;6.942;2023-04-03T02:44:06;6.47;;;3.15;;
52380;SDS011;38310;52.796;6.942;2023-04-03T02:46:34;5.90;;;3.25;;
52380;SDS011;38310;52.796;6.942;2023-04-03T02:49:00;5.10;;;3.08;;
52380;SDS011;38310;52.796;6.942;2023-04-03T02:51:26;4.75;;;3.40;;
52380;SDS011;38310;52.796;6.942;2023-04-03T02:53:51;5.97;;;3.22;;
52380;SDS011;38310;52.796;6.942;2023-04-03T02:56:17;7.57;;;3.28;;
52380;SDS011;38310;52.796;6.942;2023-04-03T02:58:44;6.35;;;3.20;;
52380;SDS011;38310;52.796;6.942;2023-04-03T03:01:10;6.07;;;3.30;;
52380;SDS011;38310;52.796;6.942;2023-04-03T03:03:36;8.80;;;3.55;;
52380;SDS011;38310;52.796;6.942;2023-04-03T03:06:03;7.00;;;3.20;;
52380;SDS011;38310;52.796;6.942;2023-04-03T03:08:29;8.05;;;3.60;;
52380;SDS011;38310;52.796;6.942;2023-04-03T03:10:55;6.45;;;3.08;;
52380;SDS011;38310;52.796;6.942;2023-04-03T03:13:21;4.88;;;2.95;;
52380;SDS011;38310;52.796;6.942;2023-04-03T03:15:47;7.07;;;2.80;;
52380;SDS011;38310;52.796;6.942;2023-04-03T03:18:13;6.07;;;3.35;;
52380;SDS011;38310;52.796;6.942;2023-04-03T03:20:39;5.28;;;3.05;;
52380;SDS011;38310;52.796;6.942;2023-04-03T03:23:05;8.35;;;3.22;;
52380;SDS011;38310;52.796;6.942;2023-04-03T03:25:30;5.70;;;3.30;;
52380;SDS011;38310;52.796;6.942;2023-04-03T03:27:56;5.85;;;3.47;;
52380;SDS011;38310;52.796;6.942;2023-04-03T03:30:21;7.43;;;3.72;;
52380;SDS011;38310;52.796;6.942;2023-04-03T03:32:47;5.28;;;3.22;;
52380;SDS011;38310;52.796;6.942;2023-04-03T03:35:13;7.82;;;3.60;;
52380;SDS011;38310;52.796;6.942;2023-04-03T03:37:39;6.18;;;3.33;;
52380;SDS011;38310;52.796;6.942;2023-04-03T03:40:04;7.05;;;3.83;;
52380;SDS011;38310;52.796;6.942;2023-04-03T03:42:31;8.23;;;3.78;;
52380;SDS011;38310;52.796;6.942;2023-04-03T03:44:56;8.70;;;3.72;;
52380;SDS011;38310;52.796;6.942;2023-04-03T03:47:22;6.07;;;3.47;;
52380;SDS011;38310;52.796;6.942;2023-04-03T03:49:48;6.88;;;3.58;;
52380;SDS011;38310;52.796;6.942;2023-04-03T03:52:13;5.93;;;3.72;;
52380;SDS011;38310;52.796;6.942;2023-04-03T03:54:39;6.82;;;3.95;;
52380;SDS011;38310;52.796;6.942;2023-04-03T03:57:05;7.35;;;3.58;;
52380;SDS011;38310;52.796;6.942;2023-04-03T03:59:31;8.90;;;4.07;;
52380;SDS011;38310;52.796;6.942;2023-04-03T04:01:57;6.47;;;3.70;;
52380;SDS011;38310;52.796;6.942;2023-04-03T04:04:22;4.80;;;3.45;;
52380;SDS011;38310;52.796;6.942;2023-04-03T04:06:48;10.73;;;3.80;;
52380;SDS011;38310;52.796;6.942;2023-04-03T04:09:14;8.85;;;4.72;;
52380;SDS011;38310;52.796;6.942;2023-04-03T04:11:39;7.03;;;3.70;;
52380;SDS011;38310;52.796;6.942;2023-04-03T04:14:06;8.15;;;3.95;;
52380;SDS011;38310;52.796;6.942;2023-04-03T04:16:32;7.80;;;3.83;;
52380;SDS011;38310;52.796;6.942;2023-04-03T04:18:57;8.20;;;3.90;;
52380;SDS011;38310;52.796;6.942;2023-04-03T04:21:23;8.00;;;3.83;;
52380;SDS011;38310;52.796;6.942;2023-04-03T04:23:49;10.52;;;4.13;;
52380;SDS011;38310;52.796;6.942;2023-04-03T04:26:14;7.07;;;3.83;;
52380;SDS011;38310;52.796;6.942;2023-04-03T04:28:40;5.28;;;3.15;;
52380;SDS011;38310;52.796;6.942;2023-04-03T04:31:06;6.35;;;3.53;;
52380;SDS011;38310;52.796;6.942;2023-04-03T04:33:31;5.88;;;3.33;;
52380;SDS011;38310;52.796;6.942;2023-04-03T04:35:57;12.00;;;3.47;;
52380;SDS011;38310;52.796;6.942;2023-04-03T04:38:23;7.13;;;3.97;;
52380;SDS011;38310;52.796;6.942;2023-04-03T04:40:48;10.13;;;3.75;;
52380;SDS011;38310;52.796;6.942;2023-04-03T04:43:14;7.97;;;3.60;;
52380;SDS011;38310;52.796;6.942;2023-04-03T04:45:41;8.25;;;3.53;;
52380;SDS011;38310;52.796;6.942;2023-04-03T04:48:07;5.93;;;3.20;;
52380;SDS011;38310;52.796;6.942;2023-04-03T04:50:33;4.72;;;3.78;;
52380;SDS011;38310;52.796;6.942;2023-04-03T04:52:58;7.88;;;3.75;;
52380;SDS011;38310;52.796;6.942;2023-04-03T04:55:24;7.07;;;3.53;;
52380;SDS011;38310;52.796;6.942;2023-04-03T04:57:50;7.00;;;3.70;;
52380;SDS011;38310;52.796;6.942;2023-04-03T05:00:15;7.78;;;3.60;;
52380;SDS011;38310;52.796;6.942;2023-04-03T05:02:43;8.85;;;3.45;;
52380;SDS011;38310;52.796;6.942;2023-04-03T05:05:08;6.45;;;3.58;;
52380;SDS011;38310;52.796;6.942;2023-04-03T05:07:34;7.50;;;3.47;;
52380;SDS011;38310;52.796;6.942;2023-04-03T05:10:00;6.40;;;4.00;;
52380;SDS011;38310;52.796;6.942;2023-04-03T05:12:27;14.57;;;4.13;;
52380;SDS011;38310;52.796;6.942;2023-04-03T05:14:53;8.02;;;3.28;;
52380;SDS011;38310;52.796;6.942;2023-04-03T05:17:19;5.05;;;2.90;;
52380;SDS011;38310;52.796;6.942;2023-04-03T05:19:45;9.80;;;4.47;;
52380;SDS011;38310;52.796;6.942;2023-04-03T05:22:11;6.57;;;3.35;;
52380;SDS011;38310;52.796;6.942;2023-04-03T05:24:37;5.47;;;3.08;;
52380;SDS011;38310;52.796;6.942;2023-04-03T05:27:02;7.55;;;4.45;;
52380;SDS011;38310;52.796;6.942;2023-04-03T05:29:28;10.75;;;3.88;;
52380;SDS011;38310;52.796;6.942;2023-04-03T05:31:54;6.15;;;3.38;;
52380;SDS011;38310;52.796;6.942;2023-04-03T05:34:20;6.68;;;3.83;;
52380;SDS011;38310;52.796;6.942;2023-04-03T05:36:46;8.88;;;3.35;;
52380;SDS011;38310;52.796;6.942;2023-04-03T05:39:11;7.10;;;3.90;;
52380;SDS011;38310;52.796;6.942;2023-04-03T05:41:37;11.13;;;3.85;;
52380;SDS011;38310;52.796;6.942;2023-04-03T05:44:03;6.88;;;4.32;;
52380;SDS011;38310;52.796;6.942;2023-04-03T05:46:29;8.00;;;4.38;;
52380;SDS011;38310;52.796;6.942;2023-04-03T05:48:55;8.35;;;3.78;;
52380;SDS011;38310;52.796;6.942;2023-04-03T05:51:24;7.47;;;4.20;;
52380;SDS011;38310;52.796;6.942;2023-04-03T05:54:13;10.52;;;4.22;;
52380;SDS011;38310;52.796;6.942;2023-04-03T05:56:48;7.37;;;3.47;;
52380;SDS011;38310;52.796;6.942;2023-04-03T05:59:14;8.88;;;4.15;;
52380;SDS011;38310;52.796;6.942;2023-04-03T06:01:40;7.53;;;3.63;;
52380;SDS011;38310;52.796;6.942;2023-04-03T06:04:06;10.65;;;4.95;;
52380;SDS011;38310;52.796;6.942;2023-04-03T06:09:17;9.52;;;3.95;;
52380;SDS011;38310;52.796;6.942;2023-04-03T06:11:44;5.72;;;3.70;;
52380;SDS011;38310;52.796;6.942;2023-04-03T06:14:10;5.60;;;4.22;;
52380;SDS011;38310;52.796;6.942;2023-04-03T06:16:37;8.45;;;3.78;;
52380;SDS011;38310;52.796;6.942;2023-04-03T06:19:04;6.18;;;3.80;;
52380;SDS011;38310;52.796;6.942;2023-04-03T06:21:31;6.35;;;4.63;;
52380;SDS011;38310;52.796;6.942;2023-04-03T06:23:57;7.32;;;3.92;;
52380;SDS011;38310;52.796;6.942;2023-04-03T06:26:23;6.53;;;4.20;;
52380;SDS011;38310;52.796;6.942;2023-04-03T06:28:51;8.55;;;4.25;;
52380;SDS011;38310;52.796;6.942;2023-04-03T06:31:17;6.72;;;3.45;;
52380;SDS011;38310;52.796;6.942;2023-04-03T06:33:43;8.98;;;3.75;;
52380;SDS011;38310;52.796;6.942;2023-04-03T06:36:10;7.50;;;3.97;;
52380;SDS011;38310;52.796;6.942;2023-04-03T06:38:36;8.15;;;4.07;;
52380;SDS011;38310;52.796;6.942;2023-04-03T06:41:02;7.78;;;3.38;;
52380;SDS011;38310;52.796;6.942;2023-04-03T06:43:28;7.93;;;3.67;;
52380;SDS011;38310;52.796;6.942;2023-04-03T06:45:56;8.52;;;3.83;;
52380;SDS011;38310;52.796;6.942;2023-04-03T06:48:22;5.68;;;3.50;;
52380;SDS011;38310;52.796;6.942;2023-04-03T06:50:48;5.75;;;3.53;;
52380;SDS011;38310;52.796;6.942;2023-04-03T06:53:14;7.70;;;3.70;;
52380;SDS011;38310;52.796;6.942;2023-04-03T06:55:39;6.10;;;3.53;;
52380;SDS011;38310;52.796;6.942;2023-04-03T06:58:06;7.13;;;3.75;;
52380;SDS011;38310;52.796;6.942;2023-04-03T07:00:32;6.88;;;3.40;;
52380;SDS011;38310;52.796;6.942;2023-04-03T07:02:58;7.60;;;3.85;;
52380;SDS011;38310;52.796;6.942;2023-04-03T07:05:24;8.05;;;4.40;;
52380;SDS011;38310;52.796;6.942;2023-04-03T07:07:51;6.40;;;3.22;;
52380;SDS011;38310;52.796;6.942;2023-04-03T07:10:17;4.45;;;3.05;;
52380;SDS011;38310;52.796;6.942;2023-04-03T07:12:43;6.43;;;3.25;;
52380;SDS011;38310;52.796;6.942;2023-04-03T07:15:10;5.80;;;3.28;;
52380;SDS011;38310;52.796;6.942;2023-04-03T07:17:37;7.47;;;3.08;;
52380;SDS011;38310;52.796;6.942;2023-04-03T07:20:03;7.40;;;2.95;;
52380;SDS011;38310;52.796;6.942;2023-04-03T07:22:29;5.72;;;3.05;;
52380;SDS011;38310;52.796;6.942;2023-04-03T07:24:55;5.65;;;3.47;;
52380;SDS011;38310;52.796;6.942;2023-04-03T07:27:21;6.35;;;3.88;;
52380;SDS011;38310;52.796;6.942;2023-04-03T07:29:46;10.05;;;3.55;;
52380;SDS011;38310;52.796;6.942;2023-04-03T07:32:13;4.13;;;2.83;;
52380;SDS011;38310;52.796;6.942;2023-04-03T07:34:40;5.57;;;3.50;;
52380;SDS011;38310;52.796;6.942;2023-04-03T07:37:05;5.72;;;2.50;;
52380;SDS011;38310;52.796;6.942;2023-04-03T07:39:32;6.65;;;3.05;;
52380;SDS011;38310;52.796;6.942;2023-04-03T07:41:58;8.35;;;2.78;;
52380;SDS011;38310;52.796;6.942;2023-04-03T07:44:24;8.55;;;3.00;;
52380;SDS011;38310;52.796;6.942;2023-04-03T07:46:50;7.82;;;2.60;;
52380;SDS011;38310;52.796;6.942;2023-04-03T07:49:16;4.50;;;2.42;;
52380;SDS011;38310;52.796;6.942;2023-04-03T07:51:43;3.55;;;2.00;;
52380;SDS011;38310;52.796;6.942;2023-04-03T07:54:09;6.25;;;2.63;;
52380;SDS011;38310;52.796;6.942;2023-04-03T07:56:35;7.13;;;2.65;;
52380;SDS011;38310;52.796;6.942;2023-04-03T07:59:01;6.72;;;2.63;;
52380;SDS011;38310;52.796;6.942;2023-04-03T08:01:27;6.72;;;2.97;;
52380;SDS011;38310;52.796;6.942;2023-04-03T08:03:53;4.25;;;2.22;;
52380;SDS011;38310;52.796;6.942;2023-04-03T08:06:19;5.93;;;2.33;;
52380;SDS011;38310;52.796;6.942;2023-04-03T08:08:45;7.07;;;2.38;;
52380;SDS011;38310;52.796;6.942;2023-04-03T08:11:12;5.60;;;2.38;;
52380;SDS011;38310;52.796;6.942;2023-04-03T08:13:37;5.88;;;2.80;;
52380;SDS011;38310;52.796;6.942;2023-04-03T08:16:07;4.70;;;2.33;;
52380;SDS011;38310;52.796;6.942;2023-04-03T08:18:34;3.65;;;1.98;;
52380;SDS011;38310;52.796;6.942;2023-04-03T08:21:00;6.63;;;2.45;;
52380;SDS011;38310;52.796;6.942;2023-04-03T08:23:26;5.10;;;2.00;;
52380;SDS011;38310;52.796;6.942;2023-04-03T08:25:51;4.93;;;2.20;;
52380;SDS011;38310;52.796;6.942;2023-04-03T08:28:18;4.55;;;1.95;;
52380;SDS011;38310;52.796;6.942;2023-04-03T08:30:43;4.30;;;2.13;;
52380;SDS011;38310;52.796;6.942;2023-04-03T08:33:09;4.40;;;2.58;;
52380;SDS011;38310;52.796;6.942;2023-04-03T08:35:41;4.40;;;2.00;;
52380;SDS011;38310;52.796;6.942;2023-04-03T08:38:07;7.22;;;2.42;;
52380;SDS011;38310;52.796;6.942;2023-04-03T08:40:33;4.25;;;2.13;;
52380;SDS011;38310;52.796;6.942;2023-04-03T08:43:03;4.18;;;1.90;;
52380;SDS011;38310;52.796;6.942;2023-04-03T08:45:53;4.93;;;2.13;;
52380;SDS011;38310;52.796;6.942;2023-04-03T08:48:35;3.83;;;1.90;;
52380;SDS011;38310;52.796;6.942;2023-04-03T08:51:05;5.20;;;2.05;;
52380;SDS011;38310;52.796;6.942;2023-04-03T08:54:06;3.42;;;2.17;;
52380;SDS011;38310;52.796;6.942;2023-04-03T08:56:34;3.40;;;2.05;;
52380;SDS011;38310;52.796;6.942;2023-04-03T08:59:03;5.85;;;2.08;;
52380;SDS011;38310;52.796;6.942;2023-04-03T09:01:36;5.05;;;2.05;;
52380;SDS011;38310;52.796;6.942;2023-04-03T09:04:10;4.85;;;2.15;;
52380;SDS011;38310;52.796;6.942;2023-04-03T09:06:38;3.30;;;1.70;;
52380;SDS011;38310;52.796;6.942;2023-04-03T09:17:03;3.10;;;1.70;;
52380;SDS011;38310;52.796;6.942;2023-04-03T09:19:41;3.67;;;1.50;;
52380;SDS011;38310;52.796;6.942;2023-04-03T09:22:34;3.25;;;1.80;;
52380;SDS011;38310;52.796;6.942;2023-04-03T09:27:42;3.28;;;1.60;;
52380;SDS011;38310;52.796;6.942;2023-04-03T09:30:12;3.78;;;1.70;;
52380;SDS011;38310;52.796;6.942;2023-04-03T09:32:41;3.53;;;1.30;;
52380;SDS011;38310;52.796;6.942;2023-04-03T09:37:45;2.78;;;1.40;;
52380;SDS011;38310;52.796;6.942;2023-04-03T09:42:51;1.92;;;1.30;;
52380;SDS011;38310;52.796;6.942;2023-04-03T09:45:23;4.18;;;1.70;;
52380;SDS011;38310;52.796;6.942;2023-04-03T09:53:34;3.92;;;1.40;;
52380;SDS011;38310;52.796;6.942;2023-04-03T09:58:52;2.70;;;1.30;;
52380;SDS011;38310;52.796;6.942;2023-04-03T10:01:36;4.82;;;1.50;;
52380;SDS011;38310;52.796;6.942;2023-04-03T10:04:19;5.07;;;1.23;;
52380;SDS011;38310;52.796;6.942;2023-04-03T10:06:47;2.65;;;1.27;;
52380;SDS011;38310;52.796;6.942;2023-04-03T10:09:19;3.30;;;1.17;;
52380;SDS011;38310;52.796;6.942;2023-04-03T10:14:24;2.50;;;1.40;;
52380;SDS011;38310;52.796;6.942;2023-04-03T10:16:53;3.92;;;1.77;;
52380;SDS011;38310;52.796;6.942;2023-04-03T10:19:47;4.68;;;1.50;;
52380;SDS011;38310;52.796;6.942;2023-04-03T10:22:44;2.50;;;1.40;;
52380;SDS011;38310;52.796;6.942;2023-04-03T10:25:35;2.63;;;1.30;;
52380;SDS011;38310;52.796;6.942;2023-04-03T10:28:26;3.85;;;1.40;;
52380;SDS011;38310;52.796;6.942;2023-04-03T10:53:34;2.90;;;1.30;;
52380;SDS011;38310;52.796;6.942;2023-04-03T10:58:55;2.85;;;1.30;;
52380;SDS011;38310;52.796;6.942;2023-04-03T11:01:41;2.70;;;1.50;;
52380;SDS011;38310;52.796;6.942;2023-04-03T11:04:09;3.42;;;1.52;;
52380;SDS011;38310;52.796;6.942;2023-04-03T11:06:41;2.58;;;1.20;;
52380;SDS011;38310;52.796;6.942;2023-04-03T11:09:21;4.90;;;1.50;;
52380;SDS011;38310;52.796;6.942;2023-04-03T11:14:28;2.35;;;1.20;;
52380;SDS011;38310;52.796;6.942;2023-04-03T11:16:59;2.92;;;1.27;;
52380;SDS011;38310;52.796;6.942;2023-04-03T11:19:34;2.90;;;1.38;;
52380;SDS011;38310;52.796;6.942;2023-04-03T11:22:22;4.63;;;1.50;;
52380;SDS011;38310;52.796;6.942;2023-04-03T11:25:04;3.97;;;1.52;;
52380;SDS011;38310;52.796;6.942;2023-04-03T11:27:40;4.13;;;1.27;;
52380;SDS011;38310;52.796;6.942;2023-04-03T11:30:22;2.10;;;1.15;;
52380;SDS011;38310;52.796;6.942;2023-04-03T11:33:00;5.40;;;1.33;;
52380;SDS011;38310;52.796;6.942;2023-04-03T11:35:48;3.00;;;1.63;;
52380;SDS011;38310;52.796;6.942;2023-04-03T11:38:18;2.88;;;1.23;;
52380;SDS011;38310;52.796;6.942;2023-04-03T11:40:53;2.00;;;1.15;;
52380;SDS011;38310;52.796;6.942;2023-04-03T11:43:25;1.92;;;0.93;;
52380;SDS011;38310;52.796;6.942;2023-04-03T11:45:56;3.20;;;1.38;;
52380;SDS011;38310;52.796;6.942;2023-04-03T11:50:53;6.75;;;1.30;;
52380;SDS011;38310;52.796;6.942;2023-04-03T11:53:39;2.60;;;1.20;;
52380;SDS011;38310;52.796;6.942;2023-04-03T11:58:43;3.88;;;1.35;;
52380;SDS011;38310;52.796;6.942;2023-04-03T12:04:11;4.32;;;1.20;;
52380;SDS011;38310;52.796;6.942;2023-04-03T12:09:22;2.33;;;1.42;;
52380;SDS011;38310;52.796;6.942;2023-04-03T12:11:51;1.70;;;1.00;;
52380;SDS011;38310;52.796;6.942;2023-04-03T12:14:18;4.53;;;1.23;;
52380;SDS011;38310;52.796;6.942;2023-04-03T12:16:47;3.42;;;1.33;;
52380;SDS011;38310;52.796;6.942;2023-04-03T12:26:44;2.30;;;1.38;;
52380;SDS011;38310;52.796;6.942;2023-04-03T12:46:43;2.35;;;1.00;;
52380;SDS011;38310;52.796;6.942;2023-04-03T12:49:57;2.50;;;1.25;;
52380;SDS011;38310;52.796;6.942;2023-04-03T12:52:22;3.50;;;1.50;;
52380;SDS011;38310;52.796;6.942;2023-04-03T12:54:50;2.63;;;1.10;;
52380;SDS011;38310;52.796;6.942;2023-04-03T12:59:43;3.20;;;1.33;;
52380;SDS011;38310;52.796;6.942;2023-04-03T13:02:30;3.55;;;1.42;;
52380;SDS011;38310;52.796;6.942;2023-04-03T13:05:06;2.58;;;1.13;;
52380;SDS011;38310;52.796;6.942;2023-04-03T13:07:35;3.88;;;1.38;;
52380;SDS011;38310;52.796;6.942;2023-04-03T13:12:44;3.22;;;1.10;;
52380;SDS011;38310;52.796;6.942;2023-04-03T13:15:25;2.13;;;1.20;;
52380;SDS011;38310;52.796;6.942;2023-04-03T13:17:55;3.95;;;1.45;;
52380;SDS011;38310;52.796;6.942;2023-04-03T13:22:59;6.35;;;1.42;;
52380;SDS011;38310;52.796;6.942;2023-04-03T13:25:34;4.97;;;1.25;;
52380;SDS011;38310;52.796;6.942;2023-04-03T13:28:02;3.03;;;1.27;;
52380;SDS011;38310;52.796;6.942;2023-04-03T13:30:32;4.45;;;1.38;;
52380;SDS011;38310;52.796;6.942;2023-04-03T13:33:02;2.00;;;1.17;;
52380;SDS011;38310;52.796;6.942;2023-04-03T13:35:35;2.40;;;1.27;;
52380;SDS011;38310;52.796;6.942;2023-04-03T13:38:04;1.87;;;0.80;;
52380;SDS011;38310;52.796;6.942;2023-04-03T13:41:02;3.05;;;1.30;;
52380;SDS011;38310;52.796;6.942;2023-04-03T13:43:49;3.75;;;1.60;;
52380;SDS011;38310;52.796;6.942;2023-04-03T13:48:44;2.78;;;1.17;;
52380;SDS011;38310;52.796;6.942;2023-04-03T13:53:46;5.85;;;1.08;;
52380;SDS011;38310;52.796;6.942;2023-04-03T14:04:31;2.72;;;1.25;;
52380;SDS011;38310;52.796;6.942;2023-04-03T14:07:10;3.45;;;1.40;;
52380;SDS011;38310;52.796;6.942;2023-04-03T14:09:36;3.55;;;1.02;;
52380;SDS011;38310;52.796;6.942;2023-04-03T14:12:05;3.70;;;1.33;;
52380;SDS011;38310;52.796;6.942;2023-04-03T14:14:33;3.33;;;1.20;;
52380;SDS011;38310;52.796;6.942;2023-04-03T14:17:02;3.42;;;1.23;;
52380;SDS011;38310;52.796;6.942;2023-04-03T14:19:37;2.30;;;1.13;;
52380;SDS011;38310;52.796;6.942;2023-04-03T14:22:11;3.40;;;1.20;;
52380;SDS011;38310;52.796;6.942;2023-04-03T14:24:40;3.17;;;1.58;;
52380;SDS011;38310;52.796;6.942;2023-04-03T14:27:11;2.65;;;1.20;;
52380;SDS011;38310;52.796;6.942;2023-04-03T14:29:43;4.65;;;1.48;;
52380;SDS011;38310;52.796;6.942;2023-04-03T14:32:14;2.97;;;1.45;;
52380;SDS011;38310;52.796;6.942;2023-04-03T14:34:42;4.82;;;1.73;;
52380;SDS011;38310;52.796;6.942;2023-04-03T14:37:12;3.58;;;1.33;;
52380;SDS011;38310;52.796;6.942;2023-04-03T14:39:41;4.20;;;1.30;;
52380;SDS011;38310;52.796;6.942;2023-04-03T14:42:11;3.17;;;1.90;;
52380;SDS011;38310;52.796;6.942;2023-04-03T14:44:39;4.80;;;1.70;;
52380;SDS011;38310;52.796;6.942;2023-04-03T14:47:05;4.20;;;1.58;;
52380;SDS011;38310;52.796;6.942;2023-04-03T14:49:33;2.47;;;1.20;;
52380;SDS011;38310;52.796;6.942;2023-04-03T14:51:59;2.92;;;1.30;;
52380;SDS011;38310;52.796;6.942;2023-04-03T14:54:25;4.05;;;1.55;;
52380;SDS011;38310;52.796;6.942;2023-04-03T14:56:53;2.63;;;1.52;;
52380;SDS011;38310;52.796;6.942;2023-04-03T14:59:20;2.08;;;1.50;;
52380;SDS011;38310;52.796;6.942;2023-04-03T15:01:47;3.25;;;1.20;;
52380;SDS011;38310;52.796;6.942;2023-04-03T15:04:14;2.58;;;1.30;;
52380;SDS011;38310;52.796;6.942;2023-04-03T15:06:41;5.93;;;1.60;;
52380;SDS011;38310;52.796;6.942;2023-04-03T15:09:24;5.32;;;1.70;;
52380;SDS011;38310;52.796;6.942;2023-04-03T15:14:17;4.63;;;1.70;;
52380;SDS011;38310;52.796;6.942;2023-04-03T15:16:43;3.55;;;1.55;;
52380;SDS011;38310;52.796;6.942;2023-04-03T15:19:10;5.30;;;2.03;;
52380;SDS011;38310;52.796;6.942;2023-04-03T15:21:36;4.38;;;1.40;;
52380;SDS011;38310;52.796;6.942;2023-04-03T15:24:02;3.45;;;1.40;;
52380;SDS011;38310;52.796;6.942;2023-04-03T15:26:29;5.13;;;1.90;;
52380;SDS011;38310;52.796;6.942;2023-04-03T15:28:55;5.15;;;1.27;;
52380;SDS011;38310;52.796;6.942;2023-04-03T15:31:20;4.60;;;1.90;;
52380;SDS011;38310;52.796;6.942;2023-04-03T15:33:46;2.88;;;1.67;;
52380;SDS011;38310;52.796;6.942;2023-04-03T15:36:12;3.30;;;1.65;;
52380;SDS011;38310;52.796;6.942;2023-04-03T15:38:38;2.95;;;1.60;;
52380;SDS011;38310;52.796;6.942;2023-04-03T15:41:03;2.65;;;1.45;;
52380;SDS011;38310;52.796;6.942;2023-04-03T15:43:30;7.13;;;1.73;;
52380;SDS011;38310;52.796;6.942;2023-04-03T15:45:56;4.10;;;1.98;;
52380;SDS011;38310;52.796;6.942;2023-04-03T15:48:24;2.30;;;1.65;;
52380;SDS011;38310;52.796;6.942;2023-04-03T15:50:51;4.38;;;1.73;;
52380;SDS011;38310;52.796;6.942;2023-04-03T15:53:16;3.75;;;1.48;;
52380;SDS011;38310;52.796;6.942;2023-04-03T15:55:42;3.38;;;1.90;;
52380;SDS011;38310;52.796;6.942;2023-04-03T15:58:08;6.25;;;1.90;;
52380;SDS011;38310;52.796;6.942;2023-04-03T16:00:34;4.30;;;1.83;;
52380;SDS011;38310;52.796;6.942;2023-04-03T16:03:05;3.30;;;1.80;;
52380;SDS011;38310;52.796;6.942;2023-04-03T16:05:33;3.67;;;1.52;;
52380;SDS011;38310;52.796;6.942;2023-04-03T16:08:02;3.63;;;1.65;;
52380;SDS011;38310;52.796;6.942;2023-04-03T16:10:28;5.10;;;1.88;;
52380;SDS011;38310;52.796;6.942;2023-04-03T16:12:54;3.78;;;1.50;;
52380;SDS011;38310;52.796;6.942;2023-04-03T16:15:20;3.72;;;1.67;;
52380;SDS011;38310;52.796;6.942;2023-04-03T16:17:46;4.70;;;1.83;;
52380;SDS011;38310;52.796;6.942;2023-04-03T16:20:13;4.35;;;2.03;;
52380;SDS011;38310;52.796;6.942;2023-04-03T16:22:39;3.05;;;1.83;;
52380;SDS011;38310;52.796;6.942;2023-04-03T16:25:06;12.05;;;5.95;;
52380;SDS011;38310;52.796;6.942;2023-04-03T16:27:33;5.28;;;2.60;;
52380;SDS011;38310;52.796;6.942;2023-04-03T16:29:59;4.28;;;2.17;;
52380;SDS011;38310;52.796;6.942;2023-04-03T16:32:26;3.53;;;1.83;;
52380;SDS011;38310;52.796;6.942;2023-04-03T16:34:54;4.40;;;2.20;;
52380;SDS011;38310;52.796;6.942;2023-04-03T16:37:20;4.15;;;1.92;;
52380;SDS011;38310;52.796;6.942;2023-04-03T16:39:46;3.15;;;1.90;;
52380;SDS011;38310;52.796;6.942;2023-04-03T16:42:12;3.58;;;2.10;;
52380;SDS011;38310;52.796;6.942;2023-04-03T16:44:38;8.02;;;1.83;;
52380;SDS011;38310;52.796;6.942;2023-04-03T16:47:04;3.67;;;1.92;;
52380;SDS011;38310;52.796;6.942;2023-04-03T16:49:31;3.00;;;1.70;;
52380;SDS011;38310;52.796;6.942;2023-04-03T16:52:03;3.53;;;1.80;;
52380;SDS011;38310;52.796;6.942;2023-04-03T16:54:30;3.75;;;1.90;;
52380;SDS011;38310;52.796;6.942;2023-04-03T16:56:56;3.60;;;1.60;;
52380;SDS011;38310;52.796;6.942;2023-04-03T16:59:22;3.72;;;1.88;;